CYND

Ottawa / Gatineau Airport

ICAO Code CYND
IATA Code YND
Name Ottawa / Gatineau Airport
Location Gatineau, Quebec, CA
Elevation 211 Feet / 64.3 Meters
Latitude 45.52166667
Longitude -75.56361111
METAR CYND 182300Z 28002KT 15SM FEW055 SCT100 BKN240 25/16 A2984 RMK CU1AC3CI3 CU TR SLP106 DENSITY ALT 1500FT
Extra information Display NOTAMS
Display Charts
Runway Length Width Surface Elevation
09 6000 ft 150 ft ASP 209 ft
27 6000 ft 150 ft ASP 211 ft

Mandatory Routes

Ottawa / Gatineau Airport

Direction Destination Level Remark Type Route
ARR FR E L RNAV YUL ALSET THURO
ARR FR NE H JET RNAV MIVAX PENTU CATOG OBTAX YUL ALSET THURO
ARR FR NE H&L NON JET RNAV KESLU BERUT NOSUT ALIDO
ARR FR NW H RNAV SMARE ONDOB
ARR FR NW L RNAV LIDAG ONDOB
ARR FR SE L RNAV BUGSY SAVAL TAPVO CYRIL
ARR FR W L RNAV MIVOK KANIK LANRK VISOL
DEP TO E L RNAV TAKOL T731 ESTEL
DEP TO E L JET RNAV AVVON T733 RABIK T739 ANTOV
DEP TO E L NONJET RNAV AVVON T733 LAFIT T737 REVEN
DEP TO N L RNAV RADEN
DEP TO NW H&L RNAV YOW OLIGO LIDAG OTONA
DEP TO S L RNAV IKLAX T634 VIBRU ART
DEP TO SE L RNAV KODEX EPMOK SAVAL BUGSY
DEP TO CYHU L RNAV TAKOL T731 EMPEK T709 PIGNA
DEP TO CYMX L RNAV TAKOL T731 EMPEK T709 PIGNA
DEP TO CYQB H RNAV TAKOL Q941 AGLUK PESAC ARR
DEP TO CYQB L RNAV TAKOL T731 AGLUK PESAC ARR
DEP TO CYUL H&L RNAV AVVON ALOET ARR
DEP TO CYYZ H&L JET RNAV TUKIR IMEBA ARR
DEP TO CYYZ H&L NONJET RNAV TUKIR VIBLI ARR